地図

経路データ

SID SEASON NUMBER BASIN SUBBASIN NAME ISO_TIME NATURE LAT LON WMO_WIND WMO_PRES WMO_AGENCY TRACK_TYPE DIST2LAND LANDFALL IFLAG USA_AGENCY USA_ATCF_ID USA_LAT USA_LON USA_RECORD USA_STATUS USA_WIND USA_PRES USA_SSHS USA_R34_NE USA_R34_SE USA_R34_SW USA_R34_NW USA_R50_NE USA_R50_SE USA_R50_SW USA_R50_NW USA_R64_NE USA_R64_SE USA_R64_SW USA_R64_NW USA_POCI USA_ROCI USA_RMW USA_EYE TOKYO_LAT TOKYO_LON TOKYO_GRADE TOKYO_WIND TOKYO_PRES TOKYO_R50_DIR TOKYO_R50_LONG TOKYO_R50_SHORT TOKYO_R30_DIR TOKYO_R30_LONG TOKYO_R30_SHORT TOKYO_LAND CMA_LAT CMA_LON CMA_CAT CMA_WIND CMA_PRES HKO_LAT HKO_LON HKO_CAT HKO_WIND HKO_PRES NEWDELHI_LAT NEWDELHI_LON NEWDELHI_GRADE NEWDELHI_WIND NEWDELHI_PRES NEWDELHI_CI NEWDELHI_DP NEWDELHI_POCI REUNION_LAT REUNION_LON REUNION_TYPE REUNION_WIND REUNION_PRES REUNION_TNUM REUNION_CI REUNION_RMW REUNION_R34_NE REUNION_R34_SE REUNION_R34_SW REUNION_R34_NW REUNION_R50_NE REUNION_R50_SE REUNION_R50_SW REUNION_R50_NW REUNION_R64_NE REUNION_R64_SE REUNION_R64_SW REUNION_R64_NW BOM_LAT BOM_LON BOM_TYPE BOM_WIND BOM_PRES BOM_TNUM BOM_CI BOM_RMW BOM_R34_NE BOM_R34_SE BOM_R34_SW BOM_R34_NW BOM_R50_NE BOM_R50_SE BOM_R50_SW BOM_R50_NW BOM_R64_NE BOM_R64_SE BOM_R64_SW BOM_R64_NW BOM_ROCI BOM_POCI BOM_EYE BOM_POS_METHOD BOM_PRES_METHOD NADI_LAT NADI_LON NADI_CAT NADI_WIND NADI_PRES WELLINGTON_LAT WELLINGTON_LON WELLINGTON_WIND WELLINGTON_PRES DS824_LAT DS824_LON DS824_STAGE DS824_WIND DS824_PRES TD9636_LAT TD9636_LON TD9636_STAGE TD9636_WIND TD9636_PRES TD9635_LAT TD9635_LON TD9635_WIND TD9635_PRES TD9635_ROCI NEUMANN_LAT NEUMANN_LON NEUMANN_CLASS NEUMANN_WIND NEUMANN_PRES MLC_LAT MLC_LON MLC_CLASS MLC_WIND MLC_PRES USA_GUST BOM_GUST BOM_GUST_PER REUNION_GUST REUNION_GUST_PER USA_SEAHGT USA_SEARAD_NE USA_SEARAD_SE USA_SEARAD_SW USA_SEARAD_NW STORM_SPEED STORM_DIR
1975272N12242 1975 102 EP MM MONICA 1975-09-28 12:00:00 TS 11.5000 -117.800 25 hurdat_epa main 1520 1520 O________OO___ hurdat_epa EP131975 11.5000 -117.800 TD 25 -1 11.5000 -117.800 TC 25 11.5000 -117.800 1 25 11 275
1975272N12242 1975 102 EP MM MONICA 1975-09-28 15:00:00 TS 11.5490 -118.348 main 1549 1546 P________PP___ EP131975 11.5502 -118.352 TD 27 -1 11.5502 -118.352 TC 27 11.5442 -118.330 1 27 11 275
1975272N12242 1975 102 EP MM MONICA 1975-09-28 18:00:00 TS 11.5981 -118.894 30 hurdat_epa main 1577 1577 O________OP___ hurdat_epa EP131975 11.6000 -118.900 TD 30 -1 11.6000 -118.900 TC 30 11.5903 -118.868 1 30 11 275
1975272N12242 1975 102 EP MM MONICA 1975-09-28 21:00:00 TS 11.6482 -119.438 main 1609 1607 P________PP___ EP131975 11.6499 -119.443 TD 32 -1 11.6499 -119.443 TC 32 11.6413 -119.422 1 32 11 275
1975272N12242 1975 102 EP MM MONICA 1975-09-29 00:00:00 TS 11.7000 -120.000 35 hurdat_epa main 1641 1641 O________OO___ hurdat_epa EP131975 11.7000 -120.000 TS 35 0 11.7000 -120.000 TC 35 11.7000 -120.000 2 35 11 275
1975272N12242 1975 102 EP MM MONICA 1975-09-29 03:00:00 TS 11.7476 -120.601 main 1682 1674 P________PP___ EP131975 11.7425 -120.600 TS 35 0 11.7425 -120.600 TC 35 11.7680 -120.604 2 35 12 275
1975272N12242 1975 102 EP MM MONICA 1975-09-29 06:00:00 TS 11.8086 -121.202 35 hurdat_epa main 1717 1717 O________OP___ hurdat_epa EP131975 11.8000 -121.200 TS 35 0 11.8000 -121.200 TC 35 11.8428 -121.210 2 35 12 278
1975272N12242 1975 102 EP MM MONICA 1975-09-29 09:00:00 TS 11.9042 -121.787 main 1753 1753 P________PP___ EP131975 11.9000 -121.787 TS 35 0 11.9000 -121.787 TC 35 11.9212 -121.786 2 35 11 280
1975272N12242 1975 102 EP MM MONICA 1975-09-29 12:00:00 TS 12.0000 -122.300 35 hurdat_epa main 1780 1780 O________OO___ hurdat_epa EP131975 12.0000 -122.300 TS 35 0 12.0000 -122.300 TC 35 12.0000 -122.300 2 35 9 280
1975272N12242 1975 102 EP MM MONICA 1975-09-29 15:00:00 TS 12.0548 -122.690 main 1797 1797 P________PP___ EP131975 12.0498 -122.680 TS 35 0 12.0498 -122.680 TC 35 12.0745 -122.731 2 35 7 279
1975272N12242 1975 102 EP MM MONICA 1975-09-29 18:00:00 TS 12.1099 -123.020 35 hurdat_epa main 1817 1817 O________OP___ hurdat_epa EP131975 12.1000 -123.000 TS 35 0 12.1000 -123.000 TC 35 12.1494 -123.098 2 35 7 283
1975272N12242 1975 102 EP MM MONICA 1975-09-29 21:00:00 TS 12.2049 -123.375 main 1835 1833 P________PP___ EP131975 12.2000 -123.365 TS 35 0 12.2000 -123.365 TC 35 12.2246 -123.415 2 35 7 286
1975272N12242 1975 102 EP MM MONICA 1975-09-30 00:00:00 TS 12.3000 -123.700 35 hurdat_epa main 1847 1847 O________OO___ hurdat_epa EP131975 12.3000 -123.700 TS 35 0 12.3000 -123.700 TC 35 12.3000 -123.700 2 35 6 284
1975272N12242 1975 102 EP MM MONICA 1975-09-30 03:00:00 TS 12.3516 -123.965 main 1859 1859 P________PP___ EP131975 12.3499 -123.965 TS 35 0 12.3499 -123.965 TC 35 12.3584 -123.967 2 36 5 282
1975272N12242 1975 102 EP MM MONICA 1975-09-30 06:00:00 TS 12.4039 -124.202 35 hurdat_epa main 1873 1872 O________OP___ hurdat_epa EP131975 12.4000 -124.200 TS 35 0 12.4000 -124.200 TC 35 12.4196 -124.208 2 37 5 286
1975272N12242 1975 102 EP MM MONICA 1975-09-30 09:00:00 TS 12.4871 -124.437 main 1879 1879 P________PP___ EP131975 12.4849 -124.435 TS 37 0 12.4849 -124.435 TC 37 12.4960 -124.445 2 38 5 292
1975272N12242 1975 102 EP MM MONICA 1975-09-30 12:00:00 TS 12.6000 -124.700 40 hurdat_epa main 1893 1892 O________OO___ hurdat_epa EP131975 12.6000 -124.700 TS 40 0 12.6000 -124.700 TC 40 12.6000 -124.700 2 40 6 293
1975272N12242 1975 102 EP MM MONICA 1975-09-30 15:00:00 TS 12.7373 -125.037 main 1907 1906 P________PP___ EP131975 12.7350 -125.043 TS 42 0 12.7350 -125.043 TC 42 12.7463 -125.015 2 38 7 294
1975272N12242 1975 102 EP MM MONICA 1975-09-30 18:00:00 TS 12.9040 -125.390 45 hurdat_epa main 1921 1920 O________OP___ hurdat_epa EP131975 12.9000 -125.400 TS 45 0 12.9000 -125.400 TC 45 12.9202 -125.350 2 37 7 299
1975272N12242 1975 102 EP MM MONICA 1975-09-30 21:00:00 TS 13.1017 -125.703 main 1928 1928 P________PP___ EP131975 13.0999 -125.708 TS 40 0 13.0999 -125.708 TC 40 13.1089 -125.684 2 36 7 304
1975272N12242 1975 102 EP MM MONICA 1975-10-01 00:00:00 TS 13.3000 -126.000 35 hurdat_epa main 1935 1935 O________OO___ hurdat_epa EP131975 13.3000 -126.000 TS 35 0 13.3000 -126.000 TC 35 13.3000 -126.000 2 35 7 301
1975272N12242 1975 102 EP MM MONICA 1975-10-01 03:00:00 TS 13.4526 -126.312 main 1944 1944 P________PP___ EP131975 13.4500 -126.315 TS 32 -1 13.4500 -126.315 TC 32 13.4628 -126.300 2 33 7 298
1975272N12242 1975 102 EP MM MONICA 1975-10-01 06:00:00 TS 13.6055 -126.595 30 hurdat_epa main 1960 1960 O________OP___ hurdat_epa EP131975 13.6000 -126.600 TD 30 -1 13.6000 -126.600 TC 30 13.6275 -126.575 2 32 6 305
1975272N12242 1975 102 EP MM MONICA 1975-10-01 09:00:00 TS 13.7947 -126.821 main 1962 1962 P________PP___ EP131975 13.7925 -126.823 TD 30 -1 13.7925 -126.823 TC 30 13.8034 -126.813 2 31 6 315
1975272N12242 1975 102 EP MM MONICA 1975-10-01 12:00:00 TS 14.0000 -127.000 30 hurdat_epa main 1964 1957 O________OO___ hurdat_epa EP131975 14.0000 -127.000 TD 30 -1 14.0000 -127.000 TC 30 14.0000 -127.000 1 30 5 320
1975272N12242 1975 102 EP MM MONICA 1975-10-01 15:00:00 TS 14.1927 -127.170 main 1966 1956 P________PP___ EP131975 14.1850 -127.180 TD 30 -1 14.1850 -127.180 TC 30 14.2237 -127.130 1 28 5 327
1975272N12242 1975 102 EP MM MONICA 1975-10-01 18:00:00 TS 14.4140 -127.283 30 hurdat_epa main 1956 1930 O________OP___ hurdat_epa EP131975 14.4000 -127.300 TD 30 -1 14.4000 -127.300 TC 30 14.4699 -127.213 1 27 5 344
1975272N12242 1975 102 EP MM MONICA 1975-10-01 21:00:00 TS 14.6902 -127.315 main 1930 1904 P________PP___ EP131975 14.6800 -127.328 TD 27 -1 14.6800 -127.328 TC 27 14.7312 -127.264 1 26 6 0
1975272N12242 1975 102 EP MM MONICA 1975-10-02 00:00:00 TS 15.0000 -127.300 25 hurdat_epa main 1904 O________OO___ hurdat_epa EP131975 15.0000 -127.300 TD 25 -1 15.0000 -127.300 TC 25 15.0000 -127.300 1 25 6 0

IBTrACS Databaseについて

本データベースは、米国NOAAが公開する1842年以降の世界の熱帯低気圧のベストトラックデータアーカイブInternational Best Track Archive for Climate Stewardship (IBTrACS)を、ウェブで閲覧しやすい形式に変換したものです。

最終更新日:2021-10-27